createdAt,value
2023-04-15T00:00:00.331Z,9.63
2023-04-15T00:02:28.802Z,7.40
2023-04-15T00:04:56.786Z,9.38
2023-04-15T00:07:24.961Z,7.40
2023-04-15T00:09:56.297Z,6.65
2023-04-15T00:12:25.582Z,8.00
2023-04-15T00:14:53.621Z,7.85
2023-04-15T00:17:21.745Z,7.95
2023-04-15T00:19:49.803Z,7.35
2023-04-15T00:22:18.370Z,10.00
2023-04-15T00:24:48.833Z,8.15
2023-04-15T00:27:17.056Z,8.07
2023-04-15T00:29:48.466Z,7.93
2023-04-15T00:32:16.859Z,8.02
2023-04-15T00:34:47.249Z,7.93
2023-04-15T00:37:15.457Z,10.70
2023-04-15T00:39:44.040Z,8.02
2023-04-15T00:42:14.279Z,7.60
2023-04-15T00:44:42.771Z,8.68
2023-04-15T00:47:12.204Z,6.93
2023-04-15T00:49:40.177Z,6.80
2023-04-15T00:52:09.079Z,8.30
2023-04-15T00:54:37.668Z,7.00
2023-04-15T00:57:07.199Z,8.43
2023-04-15T00:59:37.195Z,7.13
2023-04-15T01:02:08.383Z,7.13
2023-04-15T01:04:36.955Z,9.13
2023-04-15T01:07:05.346Z,8.95
2023-04-15T01:09:35.784Z,7.70
2023-04-15T01:12:05.142Z,7.93
2023-04-15T01:14:34.058Z,7.65
2023-04-15T01:17:02.521Z,8.82
2023-04-15T01:19:30.718Z,9.73
2023-04-15T01:22:02.950Z,8.47
2023-04-15T01:24:34.128Z,8.87
2023-04-15T01:27:02.637Z,8.20
2023-04-15T01:29:32.697Z,10.45
2023-04-15T01:32:01.097Z,10.13
2023-04-15T01:34:47.704Z,10.02
2023-04-15T01:37:39.949Z,9.02
2023-04-15T01:40:08.253Z,9.73
2023-04-15T01:42:38.780Z,8.63
2023-04-15T01:45:08.958Z,10.65
2023-04-15T01:47:40.920Z,8.23
2023-04-15T01:50:12.229Z,8.55
2023-04-15T01:52:41.685Z,8.60
2023-04-15T01:55:11.751Z,9.02
2023-04-15T01:57:41.296Z,9.55
2023-04-15T02:00:11.730Z,7.38
2023-04-15T02:02:45.130Z,6.25
2023-04-15T02:05:14.593Z,8.85
2023-04-15T02:07:43.936Z,9.73
2023-04-15T02:10:16.870Z,8.25
2023-04-15T02:12:46.701Z,9.45
2023-04-15T02:15:16.529Z,8.85
2023-04-15T02:17:51.031Z,9.77
2023-04-15T02:20:21.623Z,8.68
2023-04-15T02:22:51.261Z,10.37
2023-04-15T02:25:21.060Z,12.00
2023-04-15T02:27:53.826Z,8.07
2023-04-15T02:30:24.047Z,7.57
2023-04-15T02:32:53.554Z,10.25
2023-04-15T02:35:22.866Z,7.32
2023-04-15T02:37:52.669Z,9.10
2023-04-15T02:40:22.010Z,7.82
2023-04-15T02:42:51.537Z,7.70
2023-04-15T02:45:24.263Z,6.32
2023-04-15T02:47:54.370Z,6.57
2023-04-15T02:50:24.256Z,6.75
2023-04-15T02:52:53.698Z,6.45
2023-04-15T02:55:22.901Z,5.93
2023-04-15T02:57:52.643Z,7.65
2023-04-15T03:00:25.555Z,5.53
2023-04-15T03:02:59.749Z,6.25
2023-04-15T03:05:29.266Z,5.82
2023-04-15T03:08:03.320Z,7.45
2023-04-15T03:10:32.780Z,8.55
2023-04-15T03:13:04.737Z,6.60
2023-04-15T03:15:34.214Z,7.10
2023-04-15T03:18:04.194Z,8.30
2023-04-15T03:20:33.363Z,8.23
2023-04-15T03:23:02.915Z,7.28
2023-04-15T03:25:34.231Z,7.65
2023-04-15T03:28:06.158Z,7.30
2023-04-15T03:30:36.211Z,7.80
2023-04-15T03:33:05.748Z,7.63
2023-04-15T03:35:37.658Z,7.25
2023-04-15T03:38:07.173Z,8.60
2023-04-15T03:40:38.311Z,8.57
2023-04-15T03:45:36.672Z,6.75
2023-04-15T03:50:47.310Z,8.57
2023-04-15T03:53:16.716Z,9.27
2023-04-15T03:55:45.803Z,9.13
2023-04-15T03:58:15.543Z,8.10
2023-04-15T04:00:44.666Z,9.82
2023-04-15T04:03:14.206Z,7.53
2023-04-15T04:05:44.807Z,9.25
2023-04-15T04:08:14.333Z,8.57
2023-04-15T04:10:43.462Z,8.18
2023-04-15T04:13:12.897Z,9.07
2023-04-15T04:15:42.143Z,9.88
2023-04-15T04:18:11.651Z,8.90
2023-04-15T04:20:41.444Z,7.93
2023-04-15T04:23:13.859Z,9.80
2023-04-15T04:25:43.760Z,8.98
2023-04-15T04:28:13.158Z,9.93
2023-04-15T04:30:42.227Z,9.10
2023-04-15T04:33:11.757Z,8.82
2023-04-15T04:35:40.956Z,9.05
2023-04-15T04:38:10.748Z,12.35
2023-04-15T04:40:40.096Z,8.38
2023-04-15T04:43:10.087Z,8.68
2023-04-15T04:45:39.243Z,10.07
2023-04-15T04:48:10.213Z,9.88
2023-04-15T04:50:39.530Z,9.00
2023-04-15T04:53:09.032Z,8.23
2023-04-15T04:55:38.211Z,8.52
2023-04-15T04:58:07.528Z,8.27
2023-04-15T05:00:43.431Z,8.95
2023-04-15T05:03:15.897Z,9.52
2023-04-15T05:05:45.126Z,8.82
2023-04-15T05:08:14.429Z,9.55
2023-04-15T05:10:43.478Z,7.95
2023-04-15T05:13:12.924Z,8.98
2023-04-15T05:15:43.466Z,7.93
2023-04-15T05:18:12.982Z,8.48
2023-04-15T05:20:42.230Z,8.40
2023-04-15T05:23:11.777Z,8.95
2023-04-15T05:25:40.843Z,8.13
2023-04-15T05:28:10.624Z,7.75
2023-04-15T05:30:42.214Z,7.68
2023-04-15T05:33:11.944Z,8.45
2023-04-15T05:35:41.551Z,8.23
2023-04-15T05:38:10.963Z,9.20
2023-04-15T05:40:42.130Z,9.48
2023-04-15T05:45:40.524Z,9.57
2023-04-15T05:48:09.806Z,11.20
2023-04-15T05:50:42.215Z,10.07
2023-04-15T05:53:11.847Z,11.90
2023-04-15T05:55:41.125Z,11.60
2023-04-15T05:58:13.118Z,12.57
2023-04-15T06:00:42.510Z,12.48
2023-04-15T06:03:12.582Z,11.50
2023-04-15T06:05:41.987Z,12.02
2023-04-15T06:08:11.472Z,12.35
2023-04-15T06:10:40.812Z,13.65
2023-04-15T06:13:10.224Z,14.13
2023-04-15T06:15:39.698Z,11.38
2023-04-15T06:18:11.832Z,12.45
2023-04-15T06:20:41.837Z,11.45
2023-04-15T06:23:11.458Z,14.15
2023-04-15T06:25:40.615Z,11.75
2023-04-15T06:28:09.994Z,9.43
2023-04-15T06:30:39.267Z,11.30
2023-04-15T06:33:08.820Z,10.82
2023-04-15T06:35:37.943Z,11.75
2023-04-15T06:38:07.339Z,10.25
2023-04-15T06:40:36.921Z,10.38
2023-04-15T06:43:06.823Z,10.70
2023-04-15T06:45:38.415Z,10.77
2023-04-15T06:48:07.872Z,10.20
2023-04-15T06:50:37.010Z,11.95
2023-04-15T06:53:06.706Z,10.40
2023-04-15T06:55:36.051Z,10.10
2023-04-15T06:58:07.998Z,9.48
2023-04-15T07:00:39.076Z,8.68
2023-04-15T07:03:11.213Z,9.25
2023-04-15T07:05:40.811Z,9.57
2023-04-15T07:08:10.416Z,9.73
2023-04-15T07:10:42.133Z,10.10
2023-04-15T07:13:11.967Z,10.38
2023-04-15T07:15:43.510Z,9.98
2023-04-15T07:18:13.720Z,9.00
2023-04-15T07:20:43.850Z,9.65
2023-04-15T07:23:13.189Z,9.82
2023-04-15T07:25:42.269Z,8.75
2023-04-15T07:28:14.045Z,10.05
2023-04-15T07:30:43.312Z,8.43
2023-04-15T07:33:12.984Z,8.75
2023-04-15T07:35:45.276Z,9.68
2023-04-15T07:38:17.412Z,9.50
2023-04-15T07:40:47.182Z,9.35
2023-04-15T07:43:20.706Z,8.27
2023-04-15T07:45:52.124Z,9.02
2023-04-15T07:48:23.785Z,9.63
2023-04-15T07:50:55.291Z,9.82
2023-04-15T07:53:24.684Z,9.98
2023-04-15T07:55:53.871Z,10.20
2023-04-15T07:58:23.263Z,10.25
2023-04-15T08:00:52.501Z,10.73
2023-04-15T08:03:22.953Z,10.52
2023-04-15T08:05:52.283Z,12.38
2023-04-15T08:08:22.348Z,9.05
2023-04-15T08:10:52.770Z,10.23
2023-04-15T08:13:22.470Z,11.45
2023-04-15T08:16:14.465Z,10.55
2023-04-15T08:18:43.874Z,9.80
2023-04-15T08:21:13.518Z,9.43
2023-04-15T08:23:43.906Z,9.43
2023-04-15T08:26:13.121Z,11.48
2023-04-15T08:28:45.967Z,10.70
2023-04-15T08:31:17.137Z,10.82
2023-04-15T08:36:15.861Z,12.57
2023-04-15T08:38:45.766Z,10.02
2023-04-15T08:41:26.259Z,12.02
2023-04-15T08:44:02.395Z,12.00
2023-04-15T08:46:34.074Z,12.60
2023-04-15T08:49:10.498Z,12.15
2023-04-15T08:51:41.325Z,12.45
2023-04-15T08:54:11.159Z,15.27
2023-04-15T08:56:40.894Z,13.05
2023-04-15T08:59:11.338Z,12.40
2023-04-15T09:01:41.737Z,11.32
2023-04-15T09:04:14.324Z,12.38
2023-04-15T09:06:43.604Z,13.32
2023-04-15T09:09:14.536Z,11.93
2023-04-15T09:11:43.854Z,12.63
2023-04-15T09:14:13.625Z,11.98
2023-04-15T09:17:04.466Z,12.30
2023-04-15T09:19:34.734Z,14.43
2023-04-15T09:22:04.258Z,13.25
2023-04-15T09:24:39.710Z,19.55
2023-04-15T09:27:09.221Z,13.82
2023-04-15T09:29:39.141Z,13.00
2023-04-15T09:32:16.139Z,12.05
2023-04-15T09:34:48.313Z,10.32
2023-04-15T09:37:31.826Z,12.27
2023-04-15T09:40:01.742Z,12.63
2023-04-15T09:42:31.052Z,14.45
2023-04-15T09:45:12.722Z,13.18
2023-04-15T09:47:41.896Z,13.90
2023-04-15T09:50:11.822Z,10.95
2023-04-15T09:52:47.292Z,11.55
2023-04-15T09:55:19.058Z,10.07
2023-04-15T09:57:48.427Z,10.88
2023-04-15T10:00:17.883Z,9.10
2023-04-15T10:02:48.910Z,9.07
2023-04-15T10:07:48.398Z,10.13
2023-04-15T10:10:18.768Z,11.77
2023-04-15T10:12:49.747Z,9.48
2023-04-15T10:15:19.573Z,10.48
2023-04-15T10:17:51.217Z,9.00
2023-04-15T10:20:22.777Z,10.45
2023-04-15T10:22:53.285Z,11.95
2023-04-15T10:25:23.803Z,9.90
2023-04-15T10:27:57.205Z,10.93
2023-04-15T10:30:26.656Z,10.47
2023-04-15T10:32:57.538Z,11.00
2023-04-15T10:35:27.159Z,10.63
2023-04-15T10:37:56.689Z,10.57
2023-04-15T10:40:29.425Z,10.40
2023-04-15T10:43:01.571Z,12.90
2023-04-15T10:45:37.374Z,14.02
2023-04-15T10:48:09.145Z,9.52
2023-04-15T10:50:39.476Z,11.93
2023-04-15T10:53:11.200Z,9.90
2023-04-15T10:55:40.814Z,10.45
2023-04-15T10:58:10.505Z,9.27
2023-04-15T11:00:40.057Z,10.18
2023-04-15T11:03:10.498Z,10.88
2023-04-15T11:05:42.866Z,10.07
2023-04-15T11:08:13.309Z,9.52
2023-04-15T11:10:42.666Z,10.27
2023-04-15T11:13:11.858Z,9.43
2023-04-15T11:15:46.530Z,10.68
2023-04-15T11:18:28.661Z,12.27
2023-04-15T11:21:07.962Z,11.55
2023-04-15T11:23:44.358Z,11.98
2023-04-15T11:26:14.253Z,9.50
2023-04-15T11:28:45.346Z,9.75
2023-04-15T11:31:18.143Z,11.38
2023-04-15T11:33:53.920Z,10.38
2023-04-15T11:36:29.023Z,8.75
2023-04-15T11:38:59.944Z,9.20
2023-04-15T11:41:32.517Z,8.10
2023-04-15T11:44:16.351Z,9.35
2023-04-15T11:46:45.890Z,9.10
2023-04-15T11:49:29.265Z,7.78
2023-04-15T11:52:00.636Z,9.30
2023-04-15T11:54:28.715Z,9.93
2023-04-15T11:56:57.605Z,10.13
2023-04-15T11:59:45.285Z,8.75
2023-04-15T12:02:14.557Z,13.55
2023-04-15T12:04:42.839Z,12.75
2023-04-15T12:07:14.166Z,11.73
2023-04-15T12:09:42.603Z,8.15
2023-04-15T12:12:12.398Z,10.68
2023-04-15T12:14:40.659Z,9.63
2023-04-15T12:17:11.507Z,10.23
2023-04-15T12:19:45.469Z,10.98
2023-04-15T12:22:16.181Z,9.57
2023-04-15T12:24:47.954Z,9.13
2023-04-15T12:27:17.780Z,11.02
2023-04-15T12:29:48.109Z,9.23
2023-04-15T12:32:17.592Z,9.20
2023-04-15T12:34:51.496Z,7.93
2023-04-15T12:37:20.165Z,8.32
2023-04-15T12:39:50.198Z,9.18
2023-04-15T12:42:18.865Z,8.43
2023-04-15T12:44:47.399Z,8.68
2023-04-15T12:47:15.863Z,9.20
2023-04-15T12:49:43.877Z,8.15
2023-04-15T12:52:12.032Z,9.13
2023-04-15T12:54:40.194Z,9.13
2023-04-15T12:57:08.360Z,8.63
2023-04-15T12:59:36.684Z,7.57
2023-04-15T13:02:05.241Z,8.95
2023-04-15T13:04:33.559Z,7.90
2023-04-15T13:07:02.630Z,7.35
2023-04-15T13:09:33.347Z,10.80
2023-04-15T13:12:01.631Z,9.20
2023-04-15T13:14:29.632Z,8.75
2023-04-15T13:16:58.200Z,8.52
2023-04-15T13:19:26.894Z,7.15
2023-04-15T13:21:55.029Z,8.30
2023-04-15T13:24:22.887Z,9.50
2023-04-15T13:26:51.042Z,8.88
2023-04-15T13:29:18.904Z,11.48
2023-04-15T13:31:49.552Z,8.07
2023-04-15T13:34:17.391Z,9.20
2023-04-15T13:36:49.866Z,7.53
2023-04-15T13:39:17.808Z,11.10
2023-04-15T13:41:46.210Z,9.30
2023-04-15T13:44:16.608Z,9.82
2023-04-15T13:46:45.033Z,7.90
2023-04-15T13:49:20.284Z,6.80
2023-04-15T13:51:48.388Z,8.18
2023-04-15T13:54:18.488Z,6.65
2023-04-15T13:56:48.787Z,7.88
2023-04-15T13:59:16.631Z,8.65
2023-04-15T14:01:45.125Z,8.30
2023-04-15T14:04:13.596Z,7.75
2023-04-15T14:06:41.873Z,7.93
2023-04-15T14:09:10.550Z,8.00
2023-04-15T14:11:39.433Z,7.75
2023-04-15T14:14:07.329Z,10.43
2023-04-15T14:16:35.843Z,10.10
2023-04-15T14:19:04.174Z,8.05
2023-04-15T14:21:32.801Z,10.23
2023-04-15T14:24:03.317Z,7.90
2023-04-15T14:26:31.501Z,9.65
2023-04-15T14:28:59.616Z,8.98
2023-04-15T14:31:27.801Z,8.63
2023-04-15T14:33:55.788Z,7.63
2023-04-15T14:36:23.983Z,6.50
2023-04-15T14:38:51.837Z,7.65
2023-04-15T14:41:20.113Z,8.85
2023-04-15T14:43:48.043Z,8.13
2023-04-15T14:46:16.483Z,9.90
2023-04-15T14:48:44.513Z,8.07
2023-04-15T14:51:12.656Z,7.57
2023-04-15T14:53:40.688Z,6.97
2023-04-15T14:56:08.894Z,10.20
2023-04-15T14:58:37.076Z,7.75
2023-04-15T15:01:05.642Z,7.32
2023-04-15T15:03:34.030Z,7.43
2023-04-15T15:06:02.400Z,8.63
2023-04-15T15:08:30.470Z,7.38
2023-04-15T15:10:58.699Z,8.65
2023-04-15T15:13:26.709Z,6.97
2023-04-15T15:15:54.946Z,9.13
2023-04-15T15:18:22.952Z,9.93
2023-04-15T15:20:51.330Z,8.30
2023-04-15T15:23:19.271Z,9.82
2023-04-15T15:25:47.843Z,9.70
2023-04-15T15:28:18.135Z,9.57
2023-04-15T15:30:46.314Z,8.90
2023-04-15T15:33:14.325Z,9.40
2023-04-15T15:35:42.636Z,11.93
2023-04-15T15:38:12.581Z,7.78
2023-04-15T15:40:40.941Z,8.38
2023-04-15T15:43:08.854Z,8.63
2023-04-15T15:45:37.218Z,9.65
2023-04-15T15:48:05.810Z,10.40
2023-04-15T15:52:58.901Z,9.70
2023-04-15T15:55:27.322Z,9.63
2023-04-15T15:57:55.132Z,9.48
2023-04-15T16:00:23.478Z,7.88
2023-04-15T16:03:05.101Z,15.45
2023-04-15T16:05:35.671Z,19.00
2023-04-15T16:08:04.032Z,13.88
2023-04-15T16:10:32.271Z,18.95
2023-04-15T16:13:00.147Z,14.65
2023-04-15T16:15:28.096Z,14.68
2023-04-15T16:17:56.037Z,9.25
2023-04-15T16:20:24.219Z,11.45
2023-04-15T16:22:52.143Z,11.45
2023-04-15T16:25:20.391Z,11.25
2023-04-15T16:27:59.408Z,12.70
2023-04-15T16:30:31.415Z,11.73
2023-04-15T16:33:02.249Z,10.15
2023-04-15T16:35:34.545Z,11.85
2023-04-15T16:38:03.099Z,9.13
2023-04-15T16:40:31.258Z,9.43
2023-04-15T16:42:59.316Z,11.00
2023-04-15T16:45:27.371Z,12.10
2023-04-15T16:47:56.798Z,9.75
2023-04-15T16:50:25.081Z,9.60
2023-04-15T16:52:53.067Z,13.27
2023-04-15T16:55:21.204Z,12.45
2023-04-15T16:58:01.868Z,23.90
2023-04-15T17:03:01.351Z,13.70
2023-04-15T17:05:32.912Z,19.38
2023-04-15T17:08:00.851Z,24.02
2023-04-15T17:10:28.961Z,11.75
2023-04-15T17:12:58.141Z,9.38
2023-04-15T17:15:27.243Z,17.30
2023-04-15T17:18:04.730Z,25.63
2023-04-15T17:20:36.035Z,15.15
2023-04-15T17:23:04.377Z,11.48
2023-04-15T17:25:32.481Z,17.60
2023-04-15T17:28:04.674Z,15.48
2023-04-15T17:30:34.230Z,26.33
2023-04-15T17:33:57.811Z,34.47
2023-04-15T17:36:12.224Z,15.45
2023-04-15T17:38:59.973Z,14.95
2023-04-15T17:41:47.971Z,10.88
2023-04-15T17:44:35.671Z,21.30
2023-04-15T17:47:25.210Z,16.17
2023-04-15T17:50:13.050Z,19.13
2023-04-15T17:53:01.177Z,17.95
2023-04-15T17:55:50.404Z,17.13
2023-04-15T17:58:40.762Z,15.50
2023-04-15T18:01:28.700Z,13.88
2023-04-15T18:04:16.749Z,17.23
2023-04-15T18:07:05.882Z,19.15
2023-04-15T18:09:55.982Z,19.02
2023-04-15T18:12:43.718Z,21.35
2023-04-15T18:15:32.018Z,13.02
2023-04-15T18:18:19.695Z,14.38
2023-04-15T18:23:29.392Z,19.77
2023-04-15T18:25:58.185Z,26.08
2023-04-15T18:28:26.132Z,9.82
2023-04-15T18:30:54.788Z,52.72
2023-04-15T18:33:23.171Z,16.55
2023-04-15T18:35:51.289Z,16.98
2023-04-15T18:38:19.095Z,13.05
2023-04-15T18:40:47.148Z,14.32
2023-04-15T18:43:17.873Z,12.18
2023-04-15T18:45:45.947Z,27.42
2023-04-15T18:48:15.898Z,12.80
2023-04-15T18:50:44.078Z,23.88
2023-04-15T18:53:11.866Z,13.30
2023-04-15T18:55:40.755Z,11.55
2023-04-15T18:58:09.293Z,13.07
2023-04-15T19:00:41.503Z,14.75
2023-04-15T19:03:10.524Z,16.35
2023-04-15T19:05:41.160Z,11.30
2023-04-15T19:08:08.930Z,9.18
2023-04-15T19:10:37.036Z,9.40
2023-04-15T19:13:04.837Z,11.52
2023-04-15T19:15:32.938Z,10.50
2023-04-15T19:18:00.687Z,9.13
2023-04-15T19:20:28.786Z,13.02
2023-04-15T19:22:56.600Z,10.77
2023-04-15T19:25:24.940Z,8.70
2023-04-15T19:27:52.702Z,11.48
2023-04-15T19:30:21.922Z,12.10
2023-04-15T19:32:49.772Z,10.52
2023-04-15T19:35:17.890Z,15.38
2023-04-15T19:37:47.809Z,12.40
2023-04-15T19:40:15.903Z,18.15
2023-04-15T19:42:43.653Z,18.02
2023-04-15T19:45:11.753Z,15.75
2023-04-15T19:47:39.758Z,13.48
2023-04-15T19:50:10.029Z,17.35
2023-04-15T19:52:37.995Z,17.95
2023-04-15T19:55:06.472Z,22.40
2023-04-15T19:57:34.262Z,18.38
2023-04-15T20:00:02.321Z,17.35
2023-04-15T20:02:33.693Z,16.80
2023-04-15T20:05:02.500Z,15.52
2023-04-15T20:07:30.703Z,13.32
2023-04-15T20:09:58.757Z,13.52
2023-04-15T20:12:51.301Z,13.15
2023-04-15T20:15:16.113Z,12.00
2023-04-15T20:17:44.149Z,14.05
2023-04-15T20:20:12.276Z,14.05
2023-04-15T20:22:40.242Z,15.55
2023-04-15T20:25:08.918Z,13.70
2023-04-15T20:27:36.669Z,17.50
2023-04-15T20:30:05.619Z,13.13
2023-04-15T20:32:36.072Z,14.63
2023-04-15T20:35:05.820Z,16.20
2023-04-15T20:37:34.348Z,17.67
2023-04-15T20:40:02.645Z,17.42
2023-04-15T20:42:37.111Z,15.63
2023-04-15T20:45:07.051Z,15.10
2023-04-15T20:47:34.804Z,15.68
2023-04-15T20:50:02.910Z,14.43
2023-04-15T20:52:30.725Z,17.10
2023-04-15T20:54:58.758Z,16.70
2023-04-15T20:57:26.616Z,12.38
2023-04-15T20:59:54.646Z,16.80
2023-04-15T21:02:25.465Z,15.50
2023-04-15T21:04:53.813Z,14.68
2023-04-15T21:07:21.733Z,21.60
2023-04-15T21:09:49.713Z,16.75
2023-04-15T21:12:17.627Z,15.93
2023-04-15T21:14:45.798Z,16.20
2023-04-15T21:17:13.535Z,15.57
2023-04-15T21:19:42.431Z,15.60
2023-04-15T21:22:10.176Z,19.27
2023-04-15T21:24:40.623Z,18.38
2023-04-15T21:27:09.440Z,17.90
2023-04-15T21:29:40.351Z,18.88
2023-04-15T21:32:08.234Z,19.20
2023-04-15T21:34:36.602Z,23.25
2023-04-15T21:37:04.566Z,19.98
2023-04-15T21:39:32.543Z,22.27
2023-04-15T21:42:00.388Z,19.15
2023-04-15T21:44:28.732Z,18.85
2023-04-15T21:46:56.608Z,20.42
2023-04-15T21:49:25.560Z,20.25
2023-04-15T21:51:53.457Z,23.65
2023-04-15T21:54:21.546Z,20.55
2023-04-15T21:56:50.057Z,24.08
2023-04-15T21:59:18.031Z,27.08
2023-04-15T22:01:46.294Z,26.55
2023-04-15T22:04:14.747Z,25.85
2023-04-15T22:06:42.592Z,25.70
2023-04-15T22:09:12.799Z,23.95
2023-04-15T22:11:41.953Z,26.13
2023-04-15T22:14:10.076Z,22.10
2023-04-15T22:16:40.843Z,23.90
2023-04-15T22:19:09.702Z,20.40
2023-04-15T22:21:37.471Z,21.17
2023-04-15T22:24:34.550Z,19.10
2023-04-15T22:26:53.595Z,18.88
2023-04-15T22:29:22.040Z,20.60
2023-04-15T22:31:49.893Z,17.98
2023-04-15T22:34:24.070Z,20.00
2023-04-15T22:36:54.880Z,26.67
2023-04-15T22:39:22.990Z,29.40
2023-04-15T22:41:50.849Z,28.83
2023-04-15T22:44:18.821Z,23.52
2023-04-15T22:46:46.589Z,22.40
2023-04-15T22:49:14.563Z,22.13
2023-04-15T22:51:42.337Z,23.23
2023-04-15T22:54:10.304Z,28.98
2023-04-15T22:56:38.082Z,26.65
2023-04-15T22:59:06.437Z,25.02
2023-04-15T23:01:34.773Z,23.52
2023-04-15T23:04:05.983Z,25.67
2023-04-15T23:06:40.637Z,21.13
2023-04-15T23:09:09.142Z,22.08
2023-04-15T23:11:37.102Z,20.45
2023-04-15T23:14:05.238Z,20.50
2023-04-15T23:16:33.029Z,23.25
2023-04-15T23:19:01.241Z,24.52
2023-04-15T23:21:29.155Z,19.25
2023-04-15T23:23:57.391Z,20.77
2023-04-15T23:26:25.154Z,18.98
2023-04-15T23:28:53.177Z,20.95
2023-04-15T23:31:20.941Z,22.52
2023-04-15T23:33:49.022Z,20.98
2023-04-15T23:36:17.113Z,21.17
2023-04-15T23:38:45.193Z,22.30
2023-04-15T23:41:12.910Z,20.67
2023-04-15T23:43:40.931Z,19.35
2023-04-15T23:46:08.790Z,21.95
2023-04-15T23:48:36.838Z,22.05
2023-04-15T23:51:05.269Z,24.05
2023-04-15T23:53:33.392Z,26.42
2023-04-15T23:56:01.487Z,18.48
2023-04-15T23:58:29.502Z,19.98
